Time;durP1;ratioP1;P1;durP2;ratioP2;P2;SDS_P1;SDS_P2;PMS_P1;PMS_P2;Temp;Humidity;BMP_temperature;BMP_pressure;BME280_temperature;BME280_humidity;BME280_pressure;Samples;Min_cycle;Max_cycle;Signal;HPM_P1;HPM_P2
2021/11/27 00:01:18;;;;;;;1.73;1.10;;;;;;;10.33;56.11;93273.56;2163219;54;20075;-67
2021/11/27 00:03:21;;;;;;;4.00;1.00;;;;;;;10.31;56.04;93278.16;2162543;47;20043;-67
2021/11/27 00:05:24;;;;;;;2.30;0.93;;;;;;;10.38;55.93;93281.63;2162503;54;20112;-70
2021/11/27 00:07:26;;;;;;;2.30;0.80;;;;;;;10.35;55.72;93288.06;2163408;54;20034;-69
2021/11/27 00:09:28;;;;;;;1.65;0.70;;;;;;;10.35;55.30;93297.72;2162727;47;20030;-71
2021/11/27 00:11:30;;;;;;;2.20;0.80;;;;;;;10.37;55.29;93280.03;2163233;54;20043;-69
2021/11/27 00:13:32;;;;;;;3.03;1.02;;;;;;;10.42;55.32;93285.47;2163343;54;20083;-67
2021/11/27 00:15:36;;;;;;;2.42;0.90;;;;;;;10.39;55.38;93309.41;2163504;54;20245;-68
2021/11/27 00:17:38;;;;;;;1.67;0.50;;;;;;;10.39;55.39;93325.94;2163334;54;20068;-68
2021/11/27 00:19:40;;;;;;;0.93;0.70;;;;;;;10.39;54.96;93289.31;2162866;39;20437;-68
2021/11/27 00:21:44;;;;;;;0.85;0.57;;;;;;;10.41;55.04;93313.47;2163920;39;20410;-69
2021/11/27 00:23:46;;;;;;;4.15;1.02;;;;;;;10.47;54.71;93306.66;2162851;47;20038;-68
2021/11/27 00:25:48;;;;;;;1.80;1.20;;;;;;;10.37;55.33;93311.44;2162645;54;20030;-69
2021/11/27 00:27:50;;;;;;;1.63;0.90;;;;;;;10.38;54.96;93294.72;2162739;54;20034;-73
2021/11/27 00:29:53;;;;;;;1.20;0.85;;;;;;;10.44;55.04;93293.94;2162660;54;20562;-74
2021/11/27 00:31:55;;;;;;;2.97;0.83;;;;;;;10.46;55.07;93289.34;2163837;39;20128;-74
2021/11/27 00:33:58;;;;;;;1.40;0.77;;;;;;;10.40;54.90;93314.47;2163300;47;20291;-74
2021/11/27 00:36:00;;;;;;;1.77;0.80;;;;;;;10.47;54.75;93306.66;2163306;54;20053;-74
2021/11/27 00:38:03;;;;;;;1.40;0.90;;;;;;;10.48;54.81;93304.84;2163863;39;20437;-75
2021/11/27 00:40:07;;;;;;;1.85;0.77;;;;;;;10.52;54.81;93304.28;2162923;54;20035;-75
2021/11/27 00:42:09;;;;;;;1.00;0.60;;;;;;;10.47;55.49;93287.53;2163116;39;20513;-75
2021/11/27 00:44:10;;;;;;;1.52;0.70;;;;;;;10.47;55.40;93295.38;2163716;54;21003;-75
2021/11/27 00:46:13;;;;;;;1.10;0.73;;;;;;;10.52;55.50;93298.22;2163289;47;20046;-74
2021/11/27 00:48:16;;;;;;;2.20;0.70;;;;;;;10.52;55.45;93293.81;2163275;54;20104;-74
2021/11/27 00:50:25;;;;;;;3.55;0.93;;;;;;;10.58;55.52;93287.81;2162797;39;20389;-74
2021/11/27 00:52:27;;;;;;;1.73;0.65;;;;;;;10.58;55.80;93281.72;2162922;47;20060;-74
2021/11/27 00:54:29;;;;;;;1.40;0.77;;;;;;;10.58;55.76;93290.41;2162869;54;20681;-76
2021/11/27 00:56:32;;;;;;;1.15;0.63;;;;;;;10.56;55.90;93302.91;2163579;47;20037;-74
2021/11/27 00:58:34;;;;;;;3.15;0.90;;;;;;;10.54;55.91;93309.31;2162727;54;20042;-75
2021/11/27 01:00:43;;;;;;;1.10;0.80;;;;;;;10.48;56.36;93310.91;2162520;54;20037;-74
2021/11/27 01:02:45;;;;;;;0.63;0.52;;;;;;;10.50;56.32;93300.25;2163705;46;20049;-77
2021/11/27 01:04:47;;;;;;;1.10;0.60;;;;;;;10.52;56.79;93311.31;2163414;54;20035;-75
2021/11/27 01:06:49;;;;;;;2.55;0.80;;;;;;;10.54;56.81;93298.81;2163211;47;20030;-75
2021/11/27 01:08:54;;;;;;;2.50;0.65;;;;;;;10.57;56.59;93291.41;2163776;39;20558;-74
2021/11/27 01:11:11;;;;;;;1.17;0.80;;;;;;;10.63;56.20;93311.59;2163599;39;20433;-75
2021/11/27 01:13:13;;;;;;;2.50;1.00;;;;;;;10.68;55.77;93323.28;2163688;47;20164;-75
2021/11/27 01:15:17;;;;;;;2.20;0.90;;;;;;;10.68;56.08;93320.69;2163933;47;20798;-68
2021/11/27 01:17:19;;;;;;;1.67;0.70;;;;;;;10.60;56.24;93311.16;2163972;54;20717;-68
2021/11/27 01:19:23;;;;;;;2.40;1.20;;;;;;;10.65;56.45;93314.03;2163530;54;20030;-69
2021/11/27 01:21:30;;;;;;;2.60;1.08;;;;;;;10.64;56.19;93323.66;2163397;47;20022;-72
2021/11/27 01:23:32;;;;;;;0.85;0.65;;;;;;;10.68;56.17;93318.84;2163345;54;20234;-70
2021/11/27 01:25:35;;;;;;;1.58;0.80;;;;;;;10.72;56.12;93299.13;2163826;47;20617;-68
2021/11/27 01:27:37;;;;;;;0.90;0.63;;;;;;;10.73;56.24;93295.50;2164073;49;20030;-70
2021/11/27 01:29:40;;;;;;;1.42;0.70;;;;;;;10.79;55.99;93283.44;2163780;47;20640;-70
2021/11/27 01:31:42;;;;;;;1.17;0.75;;;;;;;10.77;56.18;93291.50;2163736;47;20031;-67
2021/11/27 01:33:44;;;;;;;1.20;0.85;;;;;;;10.76;55.03;93279.41;2162987;46;20046;-70
2021/11/27 01:35:48;;;;;;;3.42;0.70;;;;;;;10.78;55.48;93287.88;2163225;47;20514;-68
2021/11/27 01:37:50;;;;;;;1.30;0.70;;;;;;;10.79;55.55;93286.88;2163605;47;20137;-69
2021/11/27 01:39:52;;;;;;;1.08;0.60;;;;;;;10.80;55.24;93278.03;2162833;47;20035;-70
2021/11/27 01:41:54;;;;;;;0.98;0.68;;;;;;;10.83;55.50;93266.34;2164866;47;20038;-69
2021/11/27 01:43:56;;;;;;;1.38;0.70;;;;;;;10.82;55.65;93264.75;2165375;54;20081;-68
2021/11/27 01:45:58;;;;;;;1.20;0.73;;;;;;;10.75;55.74;93235.06;2165152;54;20030;-69
2021/11/27 01:48:04;;;;;;;1.83;0.90;;;;;;;10.75;56.05;93259.44;2163980;54;20039;-69
2021/11/27 01:50:07;;;;;;;0.80;0.63;;;;;;;10.80;55.77;93248.41;2163680;47;20031;-69
2021/11/27 01:52:10;;;;;;;2.97;0.70;;;;;;;10.83;55.94;93248.00;2163207;47;20142;-69
2021/11/27 01:54:12;;;;;;;2.20;0.82;;;;;;;10.78;56.06;93251.22;2162600;54;20042;-67
2021/11/27 01:56:18;;;;;;;2.88;0.60;;;;;;;10.84;55.17;93231.28;2163295;54;20037;-69
2021/11/27 01:58:20;;;;;;;0.80;0.60;;;;;;;10.88;55.44;93236.94;2163550;54;20196;-71
2021/11/27 02:00:25;;;;;;;2.17;0.75;;;;;;;10.82;55.58;93249.03;2164060;54;20154;-68
2021/11/27 02:02:27;;;;;;;1.25;0.82;;;;;;;10.85;55.63;93246.00;2163465;54;20038;-68
2021/11/27 02:04:29;;;;;;;1.02;0.70;;;;;;;10.83;55.48;93242.75;2163449;54;20030;-67
2021/11/27 02:06:32;;;;;;;1.92;1.10;;;;;;;10.80;55.39;93222.22;2163579;54;20072;-68
2021/11/27 02:08:35;;;;;;;2.83;0.90;;;;;;;10.84;55.74;93244.38;2163817;39;20198;-69
